Alpena, Arkansas
Current Conditions -  °F | °C
As of 4:13 PM on Friday 24 Oct 2014 (Local Time) from KHRO Reporting Station
Haze Haze  
Wind Chill: 25°   Ceiling: Unl
Heat Index: 26°   Visibility: 2.5mi
Dew Point: 15°   Wind: 5mph
Humidity: 54%   Direction: 260°W
Pressure: 30.07"   Gusts: NA
Location:  36.29°N, 93.29°W
Report Text: KHRO 242113Z AUTO 26004KT 2 1/2SM HZ FEW045 25/15 A3007 RMK AO2 T02500150
Loading
Personal Weather Stations






























Interactive Weather Map New forecast layout! Learn more

10-Day Weather Forecast

Advertisements
Track Severe Weather on mobile